Time;durP1;ratioP1;P1;durP2;ratioP2;P2;SDS_P1;SDS_P2;PMS_P1;PMS_P2;Temp;Humidity;BMP_temperature;BMP_pressure;BME280_temperature;BME280_humidity;BME280_pressure;Samples;Min_cycle;Max_cycle;Signal;HPM_P1;HPM_P2
2023/03/23 00:00:00;;;;;;;3.38;2.55;;;10.10;99.90;;;;;;5053568;28;20024;-84
2023/03/23 00:02:28;;;;;;;4.25;2.58;;;10.10;99.90;;;;;;5026256;28;20056;-82
2023/03/23 00:04:54;;;;;;;4.40;3.08;;;10.10;99.90;;;;;;5027813;28;20025;-81
2023/03/23 00:07:22;;;;;;;3.20;2.65;;;10.20;99.90;;;;;;5026674;28;20094;-81
2023/03/23 00:09:53;;;;;;;3.85;2.85;;;10.20;99.90;;;;;;5061317;28;20053;-82
2023/03/23 00:12:33;;;;;;;7.15;3.63;;;10.30;99.90;;;;;;5036264;28;20052;-82
2023/03/23 00:15:12;;;;;;;5.40;2.90;;;10.30;99.90;;;;;;5021041;28;20033;-80
2023/03/23 00:17:40;;;;;;;5.50;2.80;;;10.30;99.90;;;;;;5045641;28;20064;-81
2023/03/23 00:20:06;;;;;;;4.43;2.95;;;10.30;99.90;;;;;;5010337;28;20029;-81
2023/03/23 00:22:37;;;;;;;3.97;2.90;;;10.30;99.90;;;;;;5047226;28;20391;-81
2023/03/23 00:25:04;;;;;;;3.95;2.72;;;10.20;99.90;;;;;;5040235;28;20795;-81
2023/03/23 00:27:30;;;;;;;3.03;2.53;;;10.20;99.90;;;;;;5066595;28;20028;-81
2023/03/23 00:29:56;;;;;;;4.43;2.13;;;10.20;99.90;;;;;;5033485;28;20036;-82
2023/03/23 00:32:27;;;;;;;3.90;1.80;;;10.30;99.90;;;;;;5035329;28;20025;-81
2023/03/23 00:34:53;;;;;;;3.47;2.17;;;10.30;99.90;;;;;;5004755;28;20036;-81
2023/03/23 00:37:19;;;;;;;1.83;1.50;;;10.40;99.90;;;;;;5052399;28;20029;-81
2023/03/23 00:39:46;;;;;;;1.95;1.60;;;10.40;99.90;;;;;;5036816;28;20024;-81
2023/03/23 00:42:16;;;;;;;1.85;1.45;;;10.40;99.90;;;;;;5047415;28;20028;-80
2023/03/23 00:44:43;;;;;;;2.28;1.30;;;10.40;99.90;;;;;;5042420;28;20194;-81
2023/03/23 00:47:10;;;;;;;2.08;1.60;;;10.40;99.90;;;;;;5020976;28;20052;-81
2023/03/23 00:49:38;;;;;;;1.77;1.15;;;10.40;99.90;;;;;;5039010;28;20039;-81
2023/03/23 00:52:05;;;;;;;2.13;1.50;;;10.40;99.90;;;;;;5044970;28;20063;-82
2023/03/23 00:54:33;;;;;;;1.70;1.55;;;10.50;99.90;;;;;;5026259;28;20033;-81
2023/03/23 00:56:59;;;;;;;5.63;1.65;;;10.60;99.90;;;;;;5036008;28;20041;-82
2023/03/23 00:59:25;;;;;;;2.08;1.40;;;10.60;99.90;;;;;;5035692;28;20032;-81
2023/03/23 01:01:51;;;;;;;2.08;1.65;;;10.70;99.90;;;;;;5033515;28;20487;-80
2023/03/23 01:04:18;;;;;;;2.72;1.38;;;10.70;99.90;;;;;;5038991;28;20098;-82
2023/03/23 01:06:44;;;;;;;1.75;1.45;;;10.60;99.90;;;;;;5034953;28;20127;-80
2023/03/23 01:09:16;;;;;;;2.78;1.58;;;10.50;99.90;;;;;;5036105;28;20557;-82
2023/03/23 01:11:47;;;;;;;2.50;1.90;;;10.50;99.90;;;;;;5042739;28;20032;-82
2023/03/23 01:14:15;;;;;;;2.85;1.90;;;10.50;99.90;;;;;;5037301;28;20076;-82
2023/03/23 01:16:41;;;;;;;2.47;1.90;;;10.40;99.90;;;;;;5048909;28;20043;-82
2023/03/23 01:19:07;;;;;;;6.28;2.35;;;10.40;99.90;;;;;;5054606;28;20039;-84
2023/03/23 01:21:33;;;;;;;3.40;2.33;;;10.40;99.90;;;;;;5033001;28;20029;-84
2023/03/23 01:23:59;;;;;;;3.53;2.40;;;10.40;99.90;;;;;;5032480;28;20518;-82
2023/03/23 01:26:27;;;;;;;4.55;2.60;;;10.30;99.90;;;;;;5050752;28;20044;-82
2023/03/23 01:28:53;;;;;;;3.90;2.80;;;10.30;99.90;;;;;;5038051;28;20153;-84
2023/03/23 01:31:22;;;;;;;4.18;2.78;;;10.20;99.90;;;;;;5032314;28;20043;-82
2023/03/23 01:33:50;;;;;;;5.28;3.22;;;10.10;99.90;;;;;;5036678;28;20051;-84
2023/03/23 01:36:32;;;;;;;5.32;3.05;;;10.10;99.90;;;;;;5042010;28;20048;-81
2023/03/23 01:39:03;;;;;;;3.50;2.90;;;10.10;99.90;;;;;;5026500;28;20503;-84
2023/03/23 01:41:29;;;;;;;4.53;2.90;;;10.10;99.90;;;;;;5030748;28;20120;-81
2023/03/23 01:44:05;;;;;;;4.65;3.40;;;10.10;99.90;;;;;;4999692;28;20471;-81
2023/03/23 01:46:41;;;;;;;5.28;3.20;;;10.10;99.90;;;;;;5065352;28;21438;-81
2023/03/23 01:49:17;;;;;;;4.18;2.55;;;10.10;99.90;;;;;;5044433;28;20036;-82
2023/03/23 01:51:49;;;;;;;3.28;2.00;;;10.10;99.90;;;;;;5037782;28;20029;-81
2023/03/23 01:54:19;;;;;;;3.67;2.15;;;10.10;99.90;;;;;;5032999;28;20067;-83
2023/03/23 01:56:52;;;;;;;3.47;1.70;;;10.10;99.90;;;;;;5050677;28;20035;-82
2023/03/23 01:59:20;;;;;;;2.33;1.20;;;10.10;99.90;;;;;;5048917;28;20056;-84
2023/03/23 02:01:53;;;;;;;2.20;1.47;;;10.10;99.90;;;;;;5032223;28;20412;-82
2023/03/23 02:04:22;;;;;;;2.53;1.42;;;10.30;99.90;;;;;;5035259;28;20027;-84
2023/03/23 02:06:48;;;;;;;1.23;1.10;;;10.40;99.90;;;;;;5047027;28;20090;-83
2023/03/23 02:09:20;;;;;;;6.30;1.70;;;10.40;99.90;;;;;;5030015;28;20515;-84
2023/03/23 02:11:49;;;;;;;3.28;1.17;;;10.50;99.90;;;;;;5016558;28;20037;-82
2023/03/23 02:14:16;;;;;;;2.25;1.30;;;10.50;99.90;;;;;;5037273;28;20032;-82
2023/03/23 02:16:57;;;;;;;1.75;1.33;;;10.60;99.90;;;;;;5015120;28;20517;-82
2023/03/23 02:19:29;;;;;;;1.20;1.10;;;10.60;99.90;;;;;;5047972;28;20029;-81
2023/03/23 02:22:07;;;;;;;2.15;1.20;;;10.70;99.90;;;;;;5027265;28;20627;-80
2023/03/23 02:24:35;;;;;;;2.70;1.38;;;10.70;99.90;;;;;;5051606;28;20036;-83
2023/03/23 02:27:05;;;;;;;1.48;1.10;;;10.70;99.90;;;;;;5050788;28;20029;-80
2023/03/23 02:29:56;;;;;;;1.10;1.00;;;10.70;99.90;;;;;;5031593;28;20052;-82
2023/03/23 02:32:55;;;;;;;2.85;1.40;;;10.80;99.90;;;;;;5050127;28;20086;-81
2023/03/23 02:35:35;;;;;;;1.30;0.90;;;10.80;99.90;;;;;;5044183;28;20125;-81
2023/03/23 02:38:08;;;;;;;1.20;1.10;;;10.80;99.90;;;;;;5036714;28;20040;-84
2023/03/23 02:40:45;;;;;;;2.45;1.10;;;10.80;99.90;;;;;;5050840;28;20029;-84
2023/03/23 02:43:15;;;;;;;1.95;1.25;;;10.80;99.90;;;;;;5033315;28;20510;-84
2023/03/23 02:45:46;;;;;;;1.65;1.25;;;10.80;99.90;;;;;;5045580;28;20518;-82
2023/03/23 02:48:15;;;;;;;1.40;1.10;;;10.80;99.90;;;;;;5035674;28;20033;-82
2023/03/23 02:50:45;;;;;;;2.47;1.48;;;10.90;99.90;;;;;;5045897;28;20029;-82
2023/03/23 02:53:15;;;;;;;1.85;1.20;;;11.00;99.90;;;;;;5048320;28;20484;-81
2023/03/23 02:55:42;;;;;;;1.20;1.10;;;11.10;99.90;;;;;;5049102;28;20029;-81
2023/03/23 02:58:13;;;;;;;1.50;1.20;;;11.10;99.90;;;;;;5033708;28;20054;-82
2023/03/23 03:00:41;;;;;;;2.78;1.33;;;11.20;99.90;;;;;;5050447;28;20029;-81
2023/03/23 03:03:14;;;;;;;5.05;1.50;;;11.20;99.90;;;;;;5035359;28;20033;-81
2023/03/23 03:05:54;;;;;;;1.23;1.13;;;11.20;99.90;;;;;;5046524;28;20024;-83
2023/03/23 03:08:26;;;;;;;1.95;1.60;;;11.30;99.90;;;;;;5041579;28;20029;-81
2023/03/23 03:10:55;;;;;;;2.05;1.30;;;11.30;99.90;;;;;;5048118;28;20231;-83
2023/03/23 03:13:34;;;;;;;2.67;1.20;;;11.30;99.90;;;;;;5047949;28;20166;-81
2023/03/23 03:16:10;;;;;;;2.15;1.33;;;11.30;99.90;;;;;;5043108;28;20484;-81
2023/03/23 03:18:56;;;;;;;1.55;1.40;;;11.30;99.90;;;;;;5043769;28;20029;-81
2023/03/23 03:21:27;;;;;;;2.15;1.27;;;11.30;99.90;;;;;;5047989;28;20028;-81
2023/03/23 03:24:00;;;;;;;1.10;1.00;;;11.40;99.90;;;;;;5051305;28;20056;-81
2023/03/23 03:26:29;;;;;;;4.63;1.13;;;11.40;99.90;;;;;;5032314;28;20037;-81
2023/03/23 03:29:01;;;;;;;2.55;1.73;;;11.40;99.90;;;;;;5044450;28;20505;-81
2023/03/23 03:31:37;;;;;;;1.75;1.23;;;11.50;99.90;;;;;;5051759;28;20028;-81
2023/03/23 03:34:03;;;;;;;1.15;1.00;;;11.50;99.90;;;;;;5012883;28;20029;-82
2023/03/23 03:36:35;;;;;;;1.40;1.20;;;11.50;99.90;;;;;;5034672;28;20023;-81
2023/03/23 03:39:08;;;;;;;1.23;1.13;;;11.50;99.90;;;;;;5036432;28;20127;-81
2023/03/23 03:41:37;;;;;;;2.97;0.95;;;11.50;99.90;;;;;;5043943;28;20553;-81
2023/03/23 03:44:05;;;;;;;4.07;1.25;;;11.50;99.90;;;;;;5040404;28;20025;-82
2023/03/23 03:46:31;;;;;;;1.48;1.15;;;11.50;99.90;;;;;;5032634;28;20037;-81
2023/03/23 03:48:58;;;;;;;1.92;1.30;;;11.50;99.90;;;;;;5035382;28;20032;-84
2023/03/23 03:51:25;;;;;;;1.35;0.90;;;11.50;99.90;;;;;;5039628;28;20495;-84
2023/03/23 03:53:53;;;;;;;2.28;1.10;;;11.40;99.90;;;;;;5004233;28;20040;-81
2023/03/23 03:56:19;;;;;;;1.95;1.10;;;11.30;99.90;;;;;;5046542;28;20123;-82
2023/03/23 03:58:55;;;;;;;1.25;1.10;;;11.30;99.90;;;;;;5027611;28;20111;-81
2023/03/23 04:01:31;;;;;;;2.05;1.08;;;11.30;99.90;;;;;;5011241;28;20021;-81
2023/03/23 04:03:57;;;;;;;1.30;1.20;;;11.30;99.90;;;;;;5027277;28;20021;-81
2023/03/23 04:06:29;;;;;;;2.45;1.33;;;11.30;99.90;;;;;;5034079;28;20107;-81
2023/03/23 04:08:56;;;;;;;5.15;1.35;;;11.30;99.90;;;;;;5048690;28;20504;-81
2023/03/23 04:11:22;;;;;;;1.45;1.10;;;11.20;99.90;;;;;;5042651;28;20040;-80
2023/03/23 04:13:48;;;;;;;2.35;1.33;;;11.20;99.90;;;;;;5008806;28;20029;-80
2023/03/23 04:16:19;;;;;;;1.63;1.50;;;11.20;99.90;;;;;;5038852;28;20128;-82
2023/03/23 04:18:47;;;;;;;1.33;1.20;;;11.20;99.90;;;;;;5048674;28;20100;-82
2023/03/23 04:21:15;;;;;;;1.70;1.10;;;11.20;99.90;;;;;;5028985;28;20039;-83
2023/03/23 04:23:43;;;;;;;2.13;1.40;;;11.20;99.90;;;;;;5016314;28;20029;-82
2023/03/23 04:26:12;;;;;;;1.75;1.23;;;11.20;99.90;;;;;;5027535;28;20040;-81
2023/03/23 04:28:43;;;;;;;1.48;1.15;;;11.20;99.90;;;;;;5041927;28;20078;-81
2023/03/23 04:31:44;;;;;;;3.05;1.08;;;11.20;99.90;;;;;;4996655;28;20120;-83
2023/03/23 04:34:25;;;;;;;1.30;0.90;;;11.20;99.90;;;;;;5017605;28;20032;-82
2023/03/23 04:36:52;;;;;;;1.25;1.00;;;11.20;99.90;;;;;;5011718;28;20033;-83
2023/03/23 04:39:23;;;;;;;2.50;1.13;;;11.20;99.90;;;;;;5041685;28;20401;-82
2023/03/23 04:41:51;;;;;;;3.22;0.98;;;11.20;99.90;;;;;;5033248;28;20056;-83
2023/03/23 04:44:37;;;;;;;1.13;0.90;;;11.20;99.90;;;;;;5052219;28;20122;-81
2023/03/23 04:47:12;;;;;;;1.55;1.10;;;11.20;99.90;;;;;;5032963;28;20044;-83
2023/03/23 04:49:44;;;;;;;1.25;1.15;;;11.20;99.90;;;;;;5030626;28;20412;-82
2023/03/23 04:52:28;;;;;;;1.10;0.98;;;11.20;99.90;;;;;;5016141;28;20072;-82
2023/03/23 04:54:58;;;;;;;1.30;1.00;;;11.20;99.90;;;;;;5026041;28;20024;-82
2023/03/23 04:57:27;;;;;;;1.08;0.88;;;11.20;99.90;;;;;;5009275;28;20820;-83
2023/03/23 05:00:15;;;;;;;1.70;0.82;;;11.20;99.90;;;;;;5036001;28;20082;-82
2023/03/23 05:02:52;;;;;;;2.13;1.10;;;11.20;99.90;;;;;;5021122;28;20037;-82
2023/03/23 05:05:21;;;;;;;2.42;0.90;;;11.20;99.90;;;;;;5049583;28;20031;-82
2023/03/23 05:07:49;;;;;;;4.22;1.23;;;11.20;99.90;;;;;;5035564;28;20108;-81
2023/03/23 05:10:19;;;;;;;1.63;1.20;;;11.20;99.90;;;;;;5012941;28;20058;-81
2023/03/23 05:12:46;;;;;;;1.13;0.90;;;11.20;99.90;;;;;;5036679;28;20555;-82
2023/03/23 05:15:14;;;;;;;1.73;1.10;;;11.30;99.90;;;;;;5048170;28;20028;-80
2023/03/23 05:17:45;;;;;;;1.10;1.00;;;11.30;99.90;;;;;;5035011;28;20029;-82
2023/03/23 05:20:19;;;;;;;1.53;1.40;;;11.30;99.90;;;;;;5023814;28;20029;-81
2023/03/23 05:22:49;;;;;;;1.92;1.23;;;11.30;99.90;;;;;;5030256;28;20279;-83
2023/03/23 05:25:18;;;;;;;1.10;1.00;;;11.30;99.90;;;;;;5037057;28;20059;-82
2023/03/23 05:27:52;;;;;;;1.30;0.93;;;11.30;99.90;;;;;;5031848;28;20032;-82
2023/03/23 05:30:48;;;;;;;1.80;1.35;;;11.30;99.90;;;;;;5030482;28;20028;-82
2023/03/23 05:33:16;;;;;;;1.20;1.00;;;11.30;99.90;;;;;;5035548;28;20154;-82
2023/03/23 05:35:52;;;;;;;1.55;1.00;;;11.20;99.90;;;;;;5040141;28;20059;-82
2023/03/23 05:38:24;;;;;;;1.60;1.30;;;11.20;99.90;;;;;;5030341;28;20075;-82
2023/03/23 05:40:52;;;;;;;1.25;1.00;;;11.20;99.90;;;;;;5050408;28;20035;-82
2023/03/23 05:46:50;;;;;;;1.40;1.23;;;11.20;99.90;;;;;;4976611;28;20049;-83
2023/03/23 05:49:22;;;;;;;2.53;1.50;;;11.30;99.90;;;;;;5036061;28;20025;-82
2023/03/23 05:51:49;;;;;;;1.95;1.20;;;11.30;99.90;;;;;;5027697;28;20045;-83
2023/03/23 05:54:16;;;;;;;1.55;1.23;;;11.30;99.90;;;;;;5045885;28;20052;-83
2023/03/23 05:56:44;;;;;;;1.10;1.00;;;11.30;99.90;;;;;;5020274;28;20032;-83
2023/03/23 05:59:33;;;;;;;1.63;1.20;;;11.30;99.90;;;;;;5032852;28;20025;-83
2023/03/23 06:02:00;;;;;;;1.85;1.00;;;11.40;99.90;;;;;;5035168;28;20025;-84
2023/03/23 06:04:27;;;;;;;1.65;1.00;;;11.40;99.90;;;;;;5047473;28;20166;-82
2023/03/23 06:07:20;;;;;;;1.70;1.15;;;11.40;99.90;;;;;;5041469;28;20037;-83
2023/03/23 06:09:53;;;;;;;1.30;1.02;;;11.50;99.90;;;;;;5034186;28;20505;-83
2023/03/23 06:12:23;;;;;;;1.35;1.25;;;11.50;99.90;;;;;;5031655;28;20052;-83
2023/03/23 06:15:21;;;;;;;2.92;1.40;;;11.50;99.90;;;;;;5007772;28;20496;-82
2023/03/23 06:18:01;;;;;;;2.00;1.30;;;11.50;99.90;;;;;;5052996;28;20041;-82
2023/03/23 06:20:51;;;;;;;1.73;1.20;;;11.50;99.90;;;;;;5043909;28;20029;-82
2023/03/23 06:23:43;;;;;;;4.45;1.50;;;11.50;99.90;;;;;;5045279;28;20092;-82
2023/03/23 06:26:11;;;;;;;2.65;1.50;;;11.60;99.90;;;;;;5023572;28;20618;-82
2023/03/23 06:28:39;;;;;;;1.52;1.33;;;11.60;99.90;;;;;;5034437;28;20032;-82
2023/03/23 06:31:06;;;;;;;3.42;1.60;;;11.70;99.90;;;;;;5048150;28;20040;-82
2023/03/23 06:33:34;;;;;;;2.47;1.30;;;11.80;99.90;;;;;;5037916;28;20029;-82
2023/03/23 06:36:19;;;;;;;1.48;1.38;;;11.90;99.90;;;;;;5054404;28;20060;-82
2023/03/23 06:38:55;;;;;;;2.70;1.38;;;11.90;99.90;;;;;;5046001;28;20060;-82
2023/03/23 06:41:30;;;;;;;1.77;1.30;;;12.00;99.90;;;;;;5022617;28;20044;-82
2023/03/23 06:43:55;;;;;;;3.10;1.00;;;12.00;99.90;;;;;;5031186;28;20116;-83
2023/03/23 06:46:28;;;;;;;1.50;1.13;;;12.00;99.90;;;;;;5015723;28;20395;-82
2023/03/23 06:48:54;;;;;;;3.10;1.58;;;12.10;99.90;;;;;;5045876;28;20036;-82
2023/03/23 06:51:28;;;;;;;2.78;1.25;;;12.10;99.90;;;;;;5028608;28;20047;-82
2023/03/23 06:53:55;;;;;;;2.25;1.30;;;12.00;99.90;;;;;;5027158;28;20798;-82
2023/03/23 06:56:22;;;;;;;3.17;1.33;;;12.00;99.90;;;;;;5043465;28;20400;-82
2023/03/23 06:58:48;;;;;;;1.30;1.00;;;12.00;99.90;;;;;;5015268;28;20021;-83
2023/03/23 07:01:14;;;;;;;2.15;1.05;;;12.00;99.90;;;;;;5035363;28;20028;-84
2023/03/23 07:03:49;;;;;;;1.67;1.20;;;12.00;99.90;;;;;;5036347;28;20070;-82
2023/03/23 07:06:20;;;;;;;2.85;1.02;;;12.00;99.90;;;;;;5034183;28;20404;-82
2023/03/23 07:08:53;;;;;;;1.23;1.13;;;12.00;99.90;;;;;;5032191;28;20112;-82
2023/03/23 07:11:22;;;;;;;2.40;1.10;;;11.90;99.90;;;;;;5009543;28;20040;-82
2023/03/23 07:13:49;;;;;;;1.40;1.08;;;11.90;99.90;;;;;;5026695;28;20033;-83
2023/03/23 07:16:17;;;;;;;2.70;1.25;;;11.90;99.90;;;;;;5041070;28;20410;-82
2023/03/23 07:18:43;;;;;;;1.67;1.10;;;11.90;99.90;;;;;;5045449;28;20481;-82
2023/03/23 07:21:10;;;;;;;2.28;1.17;;;11.90;99.90;;;;;;5031190;28;20166;-82
2023/03/23 07:23:36;;;;;;;1.85;1.20;;;11.90;99.90;;;;;;5045982;28;20029;-83
2023/03/23 07:26:08;;;;;;;0.95;0.80;;;11.90;99.90;;;;;;5049266;28;20040;-83
2023/03/23 07:28:40;;;;;;;1.55;0.88;;;11.90;99.90;;;;;;5033694;28;20033;-83
2023/03/23 07:31:26;;;;;;;3.17;1.23;;;11.90;99.90;;;;;;5041087;28;20116;-83
2023/03/23 07:33:53;;;;;;;0.90;0.90;;;11.80;99.90;;;;;;5049496;28;20568;-83
2023/03/23 07:36:21;;;;;;;2.00;1.10;;;11.80;99.90;;;;;;5026428;28;20855;-84
2023/03/23 07:38:48;;;;;;;2.38;1.00;;;11.80;99.90;;;;;;5072100;28;20029;-83
2023/03/23 07:41:14;;;;;;;1.77;1.30;;;11.80;99.90;;;;;;5030745;28;20025;-84
2023/03/23 07:43:42;;;;;;;3.40;1.20;;;11.80;99.90;;;;;;5010988;28;20037;-83
2023/03/23 07:46:32;;;;;;;1.17;1.10;;;11.70;99.90;;;;;;5030387;28;20029;-83
2023/03/23 07:49:10;;;;;;;2.53;1.63;;;11.70;99.90;;;;;;5037142;28;20101;-83
2023/03/23 07:51:43;;;;;;;2.05;1.40;;;11.80;99.90;;;;;;5033247;28;20028;-84
2023/03/23 07:54:12;;;;;;;1.23;1.05;;;11.80;99.90;;;;;;5031584;28;20128;-83
2023/03/23 07:56:58;;;;;;;1.63;1.17;;;11.90;99.90;;;;;;5010764;28;20044;-86
2023/03/23 07:59:27;;;;;;;1.48;1.17;;;11.90;99.90;;;;;;5016378;28;20040;-84
2023/03/23 08:01:57;;;;;;;1.85;1.23;;;11.90;99.90;;;;;;5035328;28;20075;-84
2023/03/23 08:04:27;;;;;;;3.42;1.25;;;12.00;99.90;;;;;;5029008;28;20441;-83
2023/03/23 08:07:17;;;;;;;2.38;1.48;;;12.00;99.90;;;;;;5041625;28;20037;-85
2023/03/23 08:09:55;;;;;;;2.08;1.20;;;12.00;99.90;;;;;;5036268;28;20032;-85
2023/03/23 08:12:41;;;;;;;1.08;1.02;;;12.10;99.90;;;;;;5064945;28;20120;-85
2023/03/23 08:15:26;;;;;;;2.03;1.13;;;12.10;99.90;;;;;;5065832;28;20055;-83
2023/03/23 08:18:27;;;;;;;1.30;1.20;;;12.10;99.90;;;;;;5044440;28;20111;-82
2023/03/23 08:21:13;;;;;;;2.03;1.15;;;12.10;99.90;;;;;;5046796;28;20115;-83
2023/03/23 08:23:50;;;;;;;3.30;1.35;;;12.10;99.90;;;;;;5032997;28;20118;-83
2023/03/23 08:26:28;;;;;;;1.70;1.20;;;12.00;99.90;;;;;;5007116;28;20161;-83
2023/03/23 08:29:17;;;;;;;1.48;1.15;;;12.00;99.90;;;;;;5043431;28;20036;-85
2023/03/23 08:31:49;;;;;;;1.92;1.25;;;12.00;99.90;;;;;;5028746;28;20044;-84
2023/03/23 08:34:39;;;;;;;1.92;1.38;;;12.00;99.90;;;;;;5039084;28;20036;-85
2023/03/23 08:37:24;;;;;;;1.88;1.30;;;12.00;99.90;;;;;;5035933;28;20044;-83
2023/03/23 08:40:14;;;;;;;1.40;1.30;;;12.00;99.90;;;;;;5032164;28;20041;-83
2023/03/23 08:42:52;;;;;;;1.20;1.10;;;11.90;99.90;;;;;;5044849;28;20052;-83
2023/03/23 08:45:36;;;;;;;2.35;1.02;;;12.00;99.90;;;;;;5037444;28;20035;-84
2023/03/23 08:48:07;;;;;;;1.30;1.20;;;12.00;99.90;;;;;;5014565;28;20040;-84
2023/03/23 08:50:54;;;;;;;2.70;1.50;;;11.90;99.90;;;;;;5039048;28;20463;-84
2023/03/23 08:53:46;;;;;;;2.65;1.40;;;12.00;99.90;;;;;;5021761;28;20488;-83
2023/03/23 08:56:42;;;;;;;3.33;1.30;;;12.10;99.90;;;;;;4994689;28;20042;-84
2023/03/23 08:59:26;;;;;;;2.33;1.25;;;12.10;99.90;;;;;;5035923;28;20048;-82
2023/03/23 09:02:00;;;;;;;1.63;1.48;;;12.10;99.90;;;;;;5031045;28;20150;-84
2023/03/23 09:04:36;;;;;;;1.75;1.33;;;12.10;99.90;;;;;;5043842;28;20082;-84
2023/03/23 09:07:20;;;;;;;2.95;1.58;;;12.10;99.90;;;;;;5029110;28;20095;-83
2023/03/23 09:09:46;;;;;;;2.90;1.50;;;12.20;99.90;;;;;;5038445;28;20134;-85
2023/03/23 09:12:13;;;;;;;2.60;1.50;;;12.20;99.90;;;;;;5025336;28;20087;-84
2023/03/23 09:14:39;;;;;;;1.63;1.20;;;12.20;99.90;;;;;;5027891;28;20137;-84
2023/03/23 09:17:06;;;;;;;3.78;1.88;;;12.30;99.90;;;;;;5026686;28;20060;-85
2023/03/23 09:19:33;;;;;;;1.65;1.40;;;12.30;99.90;;;;;;5045690;28;20377;-84
2023/03/23 09:22:00;;;;;;;1.85;1.23;;;12.40;99.90;;;;;;5007188;28;20044;-83
2023/03/23 09:24:26;;;;;;;2.80;1.30;;;12.40;99.90;;;;;;5040850;28;20029;-83
2023/03/23 09:26:52;;;;;;;1.67;1.33;;;12.40;99.90;;;;;;5046581;28;20028;-83
2023/03/23 09:29:18;;;;;;;2.22;1.40;;;12.40;99.90;;;;;;5051566;28;20033;-84
2023/03/23 09:31:46;;;;;;;3.45;1.40;;;12.40;99.90;;;;;;5029261;28;20052;-85
2023/03/23 09:34:15;;;;;;;1.88;1.38;;;12.40;99.90;;;;;;5036338;28;20036;-84
2023/03/23 09:36:41;;;;;;;1.98;1.20;;;12.40;99.90;;;;;;5036092;28;20051;-85
2023/03/23 09:39:09;;;;;;;1.77;1.10;;;12.40;99.90;;;;;;5053159;28;20031;-85
2023/03/23 09:42:13;;;;;;;1.63;1.20;;;12.40;99.90;;;;;;5034033;28;20017;-84
2023/03/23 09:45:10;;;;;;;1.95;1.70;;;12.40;99.90;;;;;;5020165;28;20040;-83
2023/03/23 09:47:49;;;;;;;1.83;1.65;;;12.50;99.90;;;;;;5039793;28;20029;-83
2023/03/23 09:50:23;;;;;;;4.50;1.60;;;12.50;99.90;;;;;;5037932;28;20029;-84
2023/03/23 09:52:57;;;;;;;1.60;1.50;;;12.50;99.90;;;;;;5043196;28;20032;-84
2023/03/23 09:55:23;;;;;;;2.20;1.85;;;12.60;99.90;;;;;;5031044;28;20035;-83
2023/03/23 09:58:18;;;;;;;2.80;1.58;;;12.70;99.90;;;;;;5068166;28;20033;-84
2023/03/23 10:01:04;;;;;;;2.65;1.55;;;12.70;99.90;;;;;;5049837;28;20025;-83
2023/03/23 10:03:33;;;;;;;;;;;12.80;99.90;;;;;;5043279;28;20428;-83
2023/03/23 10:05:59;;;;;;;3.20;1.35;;;12.90;99.90;;;;;;5010048;28;19924;-84
2023/03/23 10:08:30;;;;;;;1.88;1.30;;;13.10;99.90;;;;;;5057641;28;20088;-84
2023/03/23 10:11:33;;;;;;;3.15;1.70;;;13.30;99.90;;;;;;5048257;28;20424;-83
2023/03/23 10:14:26;;;;;;;1.70;1.52;;;13.40;99.90;;;;;;5025461;28;20086;-85
2023/03/23 10:17:13;;;;;;;2.92;1.70;;;13.60;99.90;;;;;;5047760;28;20032;-83
2023/03/23 10:20:07;;;;;;;2.05;1.48;;;13.70;99.90;;;;;;5067280;28;20029;-84
2023/03/23 10:22:39;;;;;;;2.33;1.52;;;13.80;99.90;;;;;;5068764;28;20039;-84
2023/03/23 10:25:15;;;;;;;2.28;1.85;;;13.90;99.90;;;;;;5036711;28;20103;-84
2023/03/23 10:28:01;;;;;;;1.63;1.40;;;13.90;99.90;;;;;;5030744;28;20635;-84
2023/03/23 10:30:35;;;;;;;;;;;13.90;99.90;;;;;;5048109;28;20224;-83
2023/03/23 10:33:04;;;;;;;1.63;1.52;;;13.90;99.90;;;;;;5049130;28;19934;-84
2023/03/23 10:35:54;;;;;;;1.50;1.27;;;13.90;99.90;;;;;;5037249;28;20107;-83
2023/03/23 10:38:25;;;;;;;1.92;1.70;;;13.90;99.90;;;;;;5016369;28;20469;-84
2023/03/23 10:40:58;;;;;;;2.67;1.15;;;13.70;99.90;;;;;;5044304;28;20055;-83
2023/03/23 10:43:25;;;;;;;1.95;1.52;;;13.70;99.90;;;;;;5017639;28;20741;-83
2023/03/23 10:46:00;;;;;;;2.00;1.42;;;13.60;99.90;;;;;;5013793;28;20028;-85
2023/03/23 10:48:33;;;;;;;4.00;1.80;;;13.50;99.90;;;;;;5066675;28;20037;-82
2023/03/23 10:51:02;;;;;;;3.83;1.42;;;13.40;99.90;;;;;;5050272;28;20039;-83
2023/03/23 10:53:37;;;;;;;2.25;1.67;;;13.40;99.90;;;;;;5023570;28;20052;-83
2023/03/23 10:56:04;;;;;;;3.17;1.88;;;13.30;99.90;;;;;;5063056;28;20485;-84
2023/03/23 10:58:33;;;;;;;2.83;1.70;;;13.20;99.90;;;;;;5009268;28;20033;-82
2023/03/23 11:01:01;;;;;;;3.53;1.75;;;13.20;99.90;;;;;;5043587;28;20028;-82
2023/03/23 11:03:32;;;;;;;2.50;1.85;;;13.10;99.90;;;;;;5057209;28;20682;-83
2023/03/23 11:06:05;;;;;;;2.85;1.60;;;13.10;99.90;;;;;;5071432;28;20487;-82
2023/03/23 11:08:36;;;;;;;2.60;1.65;;;13.10;99.90;;;;;;5023247;28;20044;-83
2023/03/23 11:11:09;;;;;;;1.38;1.27;;;13.10;99.90;;;;;;5050013;28;20029;-83
2023/03/23 11:13:43;;;;;;;2.78;1.60;;;13.10;99.90;;;;;;5036973;28;20062;-83
2023/03/23 11:16:11;;;;;;;2.17;1.40;;;13.20;99.90;;;;;;5034937;28;20071;-83
2023/03/23 11:18:39;;;;;;;2.13;1.38;;;13.20;99.90;;;;;;5038771;28;20047;-83
2023/03/23 11:21:07;;;;;;;2.40;1.30;;;13.30;99.90;;;;;;5010500;28;20036;-83
2023/03/23 11:23:41;;;;;;;2.28;1.40;;;13.30;99.90;;;;;;5045833;28;20029;-83
2023/03/23 11:26:28;;;;;;;1.63;1.40;;;13.30;99.90;;;;;;5012342;28;20049;-83
2023/03/23 11:29:13;;;;;;;2.30;1.33;;;13.20;99.90;;;;;;5047311;28;20296;-81
2023/03/23 11:31:50;;;;;;;2.72;1.40;;;13.20;99.90;;;;;;5032645;28;20059;-82
2023/03/23 11:34:44;;;;;;;1.50;1.40;;;13.10;99.90;;;;;;5044882;28;20094;-84
2023/03/23 11:37:25;;;;;;;2.10;1.25;;;13.00;99.90;;;;;;5049875;28;20040;-82
2023/03/23 11:39:59;;;;;;;3.30;1.30;;;13.00;99.90;;;;;;5062631;28;20029;-81
2023/03/23 11:42:50;;;;;;;2.17;1.40;;;13.00;99.90;;;;;;5059716;28;20032;-82
2023/03/23 11:45:24;;;;;;;1.40;1.30;;;13.10;99.90;;;;;;5042822;28;20101;-82
2023/03/23 11:48:14;;;;;;;1.40;1.15;;;13.20;99.90;;;;;;5029368;28;20056;-84
2023/03/23 11:50:54;;;;;;;2.55;1.45;;;13.30;99.90;;;;;;5065259;28;20048;-84
2023/03/23 11:53:25;;;;;;;1.48;1.38;;;13.50;99.90;;;;;;5031996;28;20029;-85
2023/03/23 11:56:04;;;;;;;4.22;1.63;;;13.70;99.90;;;;;;5025949;28;20666;-87
2023/03/23 11:58:32;;;;;;;1.27;1.13;;;13.80;99.90;;;;;;5041726;28;20024;-86
2023/03/23 12:01:40;;;;;;;3.00;1.40;;;13.90;99.90;;;;;;4999990;28;20035;-86
2023/03/23 12:04:19;;;;;;;1.25;0.90;;;13.90;99.90;;;;;;5064176;28;20023;-84
2023/03/23 12:07:09;;;;;;;2.65;1.00;;;13.90;99.90;;;;;;5040282;28;20043;-83
2023/03/23 12:10:03;;;;;;;2.50;0.73;;;13.80;99.90;;;;;;5046413;28;20021;-83
2023/03/23 12:12:51;;;;;;;1.80;0.85;;;13.70;99.90;;;;;;5025754;28;20053;-87
2023/03/23 12:15:34;;;;;;;1.20;1.10;;;13.60;99.90;;;;;;5030006;28;20350;-84
2023/03/23 12:18:22;;;;;;;1.55;0.77;;;13.50;99.90;;;;;;5050569;28;20032;-84
2023/03/23 12:21:03;;;;;;;2.05;0.82;;;13.40;99.90;;;;;;5027268;28;20031;-83
2023/03/23 12:23:40;;;;;;;1.20;0.80;;;13.40;99.90;;;;;;5043777;28;20081;-85
2023/03/23 12:26:24;;;;;;;1.25;0.65;;;13.30;99.90;;;;;;5044868;28;20021;-84
2023/03/23 12:29:11;;;;;;;2.38;0.90;;;13.20;99.90;;;;;;5044822;28;20111;-83
2023/03/23 12:31:54;;;;;;;3.22;0.90;;;13.20;99.90;;;;;;5043041;28;20419;-86
2023/03/23 12:34:44;;;;;;;1.92;0.80;;;13.20;99.90;;;;;;5067232;28;20093;-83
2023/03/23 12:37:24;;;;;;;1.08;0.95;;;13.30;99.90;;;;;;5039558;28;20055;-82
2023/03/23 12:40:08;;;;;;;1.45;1.17;;;13.40;99.90;;;;;;5041851;28;20059;-82
2023/03/23 12:43:01;;;;;;;1.25;1.05;;;13.50;99.90;;;;;;5028278;28;20024;-85
2023/03/23 12:45:46;;;;;;;1.00;0.90;;;13.50;99.90;;;;;;5041195;28;20372;-84
2023/03/23 12:48:28;;;;;;;1.33;1.00;;;13.50;99.90;;;;;;5042790;28;20079;-83
2023/03/23 12:51:12;;;;;;;1.42;1.08;;;13.60;99.90;;;;;;5057475;28;20173;-84
2023/03/23 12:53:44;;;;;;;1.00;0.88;;;13.80;99.90;;;;;;5041713;28;20039;-83
2023/03/23 12:56:41;;;;;;;0.80;0.80;;;13.80;99.90;;;;;;5052845;28;20071;-85
2023/03/23 12:59:36;;;;;;;1.40;0.90;;;14.00;99.90;;;;;;5070164;28;20030;-83
2023/03/23 13:02:28;;;;;;;1.23;1.13;;;14.10;99.90;;;;;;5008965;28;20119;-84
2023/03/23 13:05:04;;;;;;;2.50;0.80;;;14.10;99.90;;;;;;5041498;28;20520;-85
2023/03/23 13:07:37;;;;;;;0.82;0.82;;;14.20;99.90;;;;;;5019514;28;20037;-86
2023/03/23 13:10:26;;;;;;;1.60;1.23;;;14.20;99.90;;;;;;5057972;28;20478;-86
2023/03/23 13:12:54;;;;;;;2.42;1.00;;;14.20;99.90;;;;;;5022554;28;20036;-85
2023/03/23 13:15:44;;;;;;;3.53;1.20;;;14.20;99.90;;;;;;5023959;28;20539;-84
2023/03/23 13:18:35;;;;;;;1.08;1.00;;;14.20;99.90;;;;;;5051283;28;20374;-85
2023/03/23 13:21:17;;;;;;;1.27;1.00;;;14.30;99.90;;;;;;5042159;28;20031;-86
2023/03/23 13:23:55;;;;;;;2.08;1.25;;;14.40;99.90;;;;;;5046683;28;20032;-83
2023/03/23 13:26:22;;;;;;;2.08;1.15;;;14.40;99.90;;;;;;5018149;28;20033;-83
2023/03/23 13:29:04;;;;;;;2.20;1.10;;;14.50;99.90;;;;;;5038244;28;20086;-83